Time;durP1;ratioP1;P1;durP2;ratioP2;P2;SDS_P1;SDS_P2;PMS_P1;PMS_P2;Temp;Humidity;BMP_temperature;BMP_pressure;BME280_temperature;BME280_humidity;BME280_pressure;Samples;Min_cycle;Max_cycle;Signal;HPM_P1;HPM_P2
2022/03/17 00:01:06;;;;;;;37.57;29.27;;;10.00;99.90;;;;;;6151281;23;20408;-86
2022/03/17 00:03:33;;;;;;;37.40;28.27;;;10.00;99.90;;;;;;6144061;23;20416;-86
2022/03/17 00:06:01;;;;;;;37.20;28.97;;;10.00;99.90;;;;;;6135294;23;20424;-86
2022/03/17 00:08:30;;;;;;;38.60;30.20;;;10.00;99.90;;;;;;6146843;23;20435;-87
2022/03/17 00:11:00;;;;;;;36.27;28.33;;;10.00;99.90;;;;;;6136790;23;20420;-86
2022/03/17 00:13:34;;;;;;;36.97;28.33;;;10.10;99.90;;;;;;6132985;23;20428;-85
2022/03/17 00:16:05;;;;;;;35.63;26.93;;;10.10;99.90;;;;;;6134254;23;20394;-86
2022/03/17 00:18:40;;;;;;;38.40;29.03;;;10.20;99.90;;;;;;6134105;23;20444;-85
2022/03/17 00:21:14;;;;;;;40.50;28.43;;;10.10;99.90;;;;;;6134386;23;20430;-87
2022/03/17 00:24:02;;;;;;;34.40;27.27;;;10.10;99.90;;;;;;6134391;23;20439;-84
2022/03/17 00:26:31;;;;;;;38.13;28.63;;;10.00;99.90;;;;;;6132747;23;20447;-85
2022/03/17 00:29:07;;;;;;;35.70;27.67;;;10.00;99.90;;;;;;6146890;23;20428;-85
2022/03/17 00:31:44;;;;;;;37.07;30.03;;;10.10;99.90;;;;;;6150234;23;20463;-86
2022/03/17 00:34:20;;;;;;;35.67;27.77;;;10.00;99.90;;;;;;6133226;23;20431;-87
2022/03/17 00:36:59;;;;;;;36.57;28.87;;;10.00;99.90;;;;;;6132919;23;20416;-87
2022/03/17 00:39:30;;;;;;;37.30;28.90;;;10.10;99.90;;;;;;6143335;23;20388;-87
2022/03/17 00:42:08;;;;;;;39.90;31.00;;;9.90;99.90;;;;;;6143245;23;20427;-87
2022/03/17 00:44:52;;;;;;;33.90;26.67;;;10.00;99.90;;;;;;6143512;23;20420;-86
2022/03/17 00:47:22;;;;;;;39.13;30.13;;;9.90;99.90;;;;;;6149777;23;20487;-87
2022/03/17 00:49:57;;;;;;;38.33;29.10;;;10.00;99.90;;;;;;6145663;23;20472;-86
2022/03/17 00:52:30;;;;;;;34.37;27.47;;;9.90;99.90;;;;;;6141084;23;20411;-86
2022/03/17 00:55:09;;;;;;;39.87;29.80;;;9.90;99.90;;;;;;6135372;23;20412;-86
2022/03/17 00:57:47;;;;;;;37.13;29.67;;;9.80;99.90;;;;;;6142627;23;20479;-86
2022/03/17 01:00:26;;;;;;;40.80;29.50;;;9.80;99.90;;;;;;6150617;23;20478;-86
2022/03/17 01:03:01;;;;;;;34.87;29.70;;;9.80;99.90;;;;;;6144138;23;20438;-86
2022/03/17 01:05:36;;;;;;;34.97;27.30;;;9.70;99.90;;;;;;6135751;23;20403;-86
2022/03/17 01:08:08;;;;;;;35.03;27.57;;;9.70;99.90;;;;;;6135619;23;20446;-86
2022/03/17 01:10:43;;;;;;;41.10;28.63;;;9.80;99.90;;;;;;6132838;23;20376;-86
2022/03/17 01:13:18;;;;;;;38.70;29.03;;;9.80;99.90;;;;;;6135193;23;20418;-85
2022/03/17 01:15:49;;;;;;;38.03;29.40;;;9.80;99.90;;;;;;6150801;23;20451;-86
2022/03/17 01:18:29;;;;;;;36.20;29.20;;;9.80;99.90;;;;;;6149249;23;20428;-86
2022/03/17 01:21:00;;;;;;;39.63;29.27;;;9.80;99.90;;;;;;6139756;23;20423;-88
2022/03/17 01:23:30;;;;;;;40.50;31.30;;;9.70;99.90;;;;;;6144915;23;20366;-87
2022/03/17 01:26:06;;;;;;;37.97;29.10;;;9.60;99.90;;;;;;6132332;23;20412;-87
2022/03/17 01:28:35;;;;;;;34.40;27.93;;;9.50;99.90;;;;;;6133144;23;20930;-86
2022/03/17 01:31:07;;;;;;;38.80;28.77;;;9.50;99.90;;;;;;6134953;23;20490;-87
2022/03/17 01:33:36;;;;;;;35.53;27.67;;;9.50;99.90;;;;;;6136409;23;20387;-86
2022/03/17 01:36:10;;;;;;;36.50;28.40;;;9.60;99.90;;;;;;6133459;23;20471;-86
2022/03/17 01:38:42;;;;;;;33.63;27.57;;;9.60;99.90;;;;;;6132446;23;20390;-85
2022/03/17 01:41:09;;;;;;;39.17;27.90;;;9.60;99.90;;;;;;6131681;23;20422;-88
2022/03/17 01:43:37;;;;;;;36.77;28.50;;;9.50;99.90;;;;;;6130976;23;20502;-87
2022/03/17 01:46:09;;;;;;;38.37;28.53;;;9.60;99.90;;;;;;6130993;23;20907;-86
2022/03/17 01:48:36;;;;;;;36.67;27.03;;;9.60;99.90;;;;;;6132784;23;20784;-87
2022/03/17 01:51:08;;;;;;;35.87;28.43;;;9.60;99.90;;;;;;6137068;23;20408;-85
2022/03/17 01:53:51;;;;;;;33.80;27.20;;;9.60;99.90;;;;;;6134429;23;20471;-87
2022/03/17 01:56:25;;;;;;;36.27;27.77;;;9.60;99.90;;;;;;6133414;23;20416;-86
2022/03/17 01:58:53;;;;;;;39.40;29.67;;;9.40;99.90;;;;;;6133294;23;20388;-87
2022/03/17 02:01:28;;;;;;;38.23;27.40;;;9.40;99.90;;;;;;6142203;23;20407;-87
2022/03/17 02:03:58;;;;;;;35.03;29.23;;;9.40;99.90;;;;;;6151760;23;20392;-87
2022/03/17 02:06:33;;;;;;;36.50;28.93;;;9.60;99.90;;;;;;6140792;23;20416;-87
2022/03/17 02:09:07;;;;;;;39.50;28.83;;;9.50;99.90;;;;;;6134981;23;20468;-87
2022/03/17 02:14:34;;;;;;;36.30;28.93;;;9.40;99.90;;;;;;6132994;23;20753;-88
2022/03/17 02:17:05;;;;;;;34.40;26.43;;;9.40;99.90;;;;;;6133005;23;20758;-86
2022/03/17 02:19:33;;;;;;;37.80;28.73;;;9.30;99.90;;;;;;6133578;23;20392;-86
2022/03/17 02:22:06;;;;;;;37.00;29.10;;;9.30;99.90;;;;;;6134975;23;20419;-87
2022/03/17 02:27:28;;;;;;;36.00;27.92;;;9.30;99.90;;;;;;6138146;23;20467;-85
2022/03/17 02:30:03;;;;;;;37.43;28.23;;;9.40;99.90;;;;;;6132250;23;20600;-86
2022/03/17 02:32:32;;;;;;;36.30;28.70;;;9.40;99.90;;;;;;6131080;23;20483;-86
2022/03/17 02:35:09;;;;;;;40.88;28.42;;;9.40;99.90;;;;;;6138736;23;20979;-87
2022/03/17 02:37:40;;;;;;;37.63;27.85;;;9.40;99.90;;;;;;6152584;23;20200;-87
2022/03/17 02:40:12;;;;;;;37.33;27.93;;;9.40;99.90;;;;;;6153982;23;20168;-87
2022/03/17 02:42:43;;;;;;;38.77;28.43;;;9.40;99.90;;;;;;6150365;23;20432;-87
2022/03/17 02:45:11;;;;;;;38.20;28.20;;;9.40;99.90;;;;;;6136676;23;20419;-87
2022/03/17 02:47:42;;;;;;;35.55;28.13;;;9.40;99.90;;;;;;6145298;23;20444;-87
2022/03/17 02:50:13;;;;;;;41.10;28.40;;;9.40;99.90;;;;;;6144948;23;20199;-87
2022/03/17 02:52:42;;;;;;;36.23;27.20;;;9.40;99.90;;;;;;6135200;23;20440;-87
2022/03/17 02:55:12;;;;;;;38.13;28.07;;;9.40;99.90;;;;;;6132816;23;20423;-87
2022/03/17 02:57:42;;;;;;;37.33;27.13;;;9.50;99.90;;;;;;6133218;23;20431;-86
2022/03/17 03:00:13;;;;;;;32.83;26.57;;;9.50;99.90;;;;;;6132901;23;20420;-87
2022/03/17 03:02:46;;;;;;;36.43;28.03;;;9.50;99.90;;;;;;6132707;23;20886;-86
2022/03/17 03:05:22;;;;;;;34.53;27.10;;;9.50;99.90;;;;;;6132466;23;20376;-86
2022/03/17 03:07:49;;;;;;;35.80;27.17;;;9.60;99.90;;;;;;6131536;23;20456;-85
2022/03/17 03:10:18;;;;;;;37.80;29.03;;;9.60;99.90;;;;;;6133023;23;20446;-86
2022/03/17 03:12:45;;;;;;;35.87;26.97;;;9.50;99.90;;;;;;6131745;23;20396;-85
2022/03/17 03:15:13;;;;;;;33.70;27.47;;;9.50;99.90;;;;;;6132569;23;20474;-85
2022/03/17 03:17:43;;;;;;;35.87;27.73;;;9.50;99.90;;;;;;6132001;23;20731;-87
2022/03/17 03:20:11;;;;;;;34.03;26.83;;;9.50;99.90;;;;;;6131916;23;20432;-87
2022/03/17 03:22:55;;;;;;;32.77;27.40;;;9.60;99.90;;;;;;6133342;23;20403;-86
2022/03/17 03:25:24;;;;;;;39.23;28.20;;;9.60;99.90;;;;;;6130562;23;20478;-86
2022/03/17 03:30:56;;;;;;;38.83;28.20;;;9.50;99.90;;;;;;6130842;23;20416;-86
2022/03/17 03:33:36;;;;;;;37.37;28.70;;;9.60;99.90;;;;;;6122627;23;20583;-85
2022/03/17 03:39:02;;;;;;;37.87;28.20;;;9.60;99.90;;;;;;6132400;23;20865;-85
2022/03/17 03:41:45;;;;;;;39.07;28.47;;;9.60;99.90;;;;;;6132506;23;20408;-87
2022/03/17 03:47:04;;;;;;;33.90;28.07;;;9.60;99.90;;;;;;6124424;23;20518;-87
2022/03/17 03:49:39;;;;;;;40.70;29.40;;;9.60;99.90;;;;;;6146659;23;20410;-87
2022/03/17 03:52:09;;;;;;;44.13;29.50;;;9.50;99.90;;;;;;6143706;23;20459;-87
2022/03/17 03:54:58;;;;;;;42.77;28.97;;;9.40;99.90;;;;;;6140014;23;20412;-86
2022/03/17 03:57:38;;;;;;;39.43;29.23;;;9.50;99.90;;;;;;6136307;23;20471;-86
2022/03/17 04:00:16;;;;;;;41.20;29.77;;;9.40;99.90;;;;;;6135741;23;20420;-84
2022/03/17 04:02:51;;;;;;;37.47;28.53;;;9.40;99.90;;;;;;6139121;23;20458;-87
2022/03/17 04:05:28;;;;;;;38.27;30.10;;;9.50;99.90;;;;;;6153275;23;20416;-85
2022/03/17 04:08:04;;;;;;;34.67;27.00;;;9.60;99.90;;;;;;6137057;23;20960;-84
2022/03/17 04:10:36;;;;;;;37.93;28.67;;;9.70;99.90;;;;;;6134143;23;20474;-84
2022/03/17 04:13:17;;;;;;;38.63;28.27;;;9.80;99.90;;;;;;6148981;23;20398;-85
2022/03/17 04:15:54;;;;;;;41.77;29.77;;;9.70;99.90;;;;;;6152372;23;20392;-86
2022/03/17 04:18:31;;;;;;;37.20;29.33;;;9.70;99.90;;;;;;6138122;23;20446;-86
2022/03/17 04:21:02;;;;;;;35.60;27.10;;;9.70;99.90;;;;;;6135365;23;20408;-86
2022/03/17 04:23:32;;;;;;;38.90;30.13;;;9.70;99.90;;;;;;6136267;23;20381;-86
2022/03/17 04:26:07;;;;;;;37.27;28.60;;;9.80;99.90;;;;;;6138648;23;20479;-85
2022/03/17 04:28:42;;;;;;;37.07;26.67;;;10.00;99.90;;;;;;6142440;23;20443;-86
2022/03/17 04:31:16;;;;;;;43.92;30.73;;;10.10;99.90;;;;;;6145073;23;20390;-85
2022/03/17 04:33:46;;;;;;;36.80;27.13;;;9.90;99.90;;;;;;6146080;23;20180;-84
2022/03/17 04:36:16;;;;;;;34.13;27.40;;;9.90;99.90;;;;;;6144886;23;20490;-86
2022/03/17 04:38:47;;;;;;;40.73;30.73;;;9.90;99.90;;;;;;6135505;23;20487;-86
2022/03/17 04:41:25;;;;;;;36.23;28.33;;;9.90;99.90;;;;;;6138351;23;20400;-87
2022/03/17 04:44:05;;;;;;;34.43;26.10;;;9.80;99.90;;;;;;6138777;23;20411;-87
2022/03/17 04:46:34;;;;;;;36.80;28.10;;;9.90;99.90;;;;;;6138267;23;20490;-87
2022/03/17 04:51:48;;;;;;;37.17;28.60;;;9.90;99.90;;;;;;6148300;23;20439;-87
2022/03/17 04:54:15;;;;;;;40.33;30.55;;;9.90;99.90;;;;;;6141015;23;20416;-86
2022/03/17 04:56:54;;;;;;;36.00;29.77;;;9.80;99.90;;;;;;6135323;23;20200;-87
2022/03/17 04:59:22;;;;;;;37.60;29.20;;;9.80;99.90;;;;;;6107877;23;20519;-89
2022/03/17 05:01:49;;;;;;;38.87;27.87;;;9.80;99.90;;;;;;6118429;23;20420;-87
2022/03/17 05:04:16;;;;;;;35.47;28.10;;;10.00;99.90;;;;;;6118527;23;20398;-87
2022/03/17 05:06:43;;;;;;;39.20;29.80;;;10.00;99.90;;;;;;6108030;23;20899;-88
2022/03/17 05:09:10;;;;;;;36.20;28.30;;;10.00;99.90;;;;;;6118583;23;20448;-88
2022/03/17 05:11:37;;;;;;;38.80;27.97;;;10.10;99.90;;;;;;6115806;23;20471;-86
2022/03/17 05:14:04;;;;;;;41.63;29.97;;;10.10;99.90;;;;;;6103283;23;20397;-87
2022/03/17 05:16:33;;;;;;;39.03;30.43;;;10.10;99.90;;;;;;6103022;23;20421;-87
2022/03/17 05:19:00;;;;;;;41.47;30.17;;;10.00;99.90;;;;;;6104661;23;20778;-86
2022/03/17 05:21:27;;;;;;;41.70;29.37;;;10.00;99.90;;;;;;6119727;23;20408;-88
2022/03/17 05:23:54;;;;;;;35.83;27.10;;;9.90;99.90;;;;;;6111758;23;20397;-86
2022/03/17 05:26:21;;;;;;;37.50;29.10;;;10.00;99.90;;;;;;6113082;23;20409;-86
2022/03/17 05:28:48;;;;;;;38.83;29.60;;;10.00;99.90;;;;;;6124906;23;20437;-86
2022/03/17 05:31:14;;;;;;;39.40;29.57;;;10.00;99.90;;;;;;6114512;23;20500;-87
2022/03/17 05:33:43;;;;;;;37.47;27.02;;;9.80;99.90;;;;;;6114761;23;20416;-86
2022/03/17 05:36:10;;;;;;;41.17;28.57;;;9.90;99.90;;;;;;6108754;23;20236;-87
2022/03/17 05:38:37;;;;;;;36.80;28.60;;;9.90;99.90;;;;;;6108309;23;20433;-87
2022/03/17 05:41:05;;;;;;;39.17;30.80;;;9.90;99.90;;;;;;6107122;23;20387;-87
2022/03/17 05:43:33;;;;;;;37.67;30.07;;;9.80;99.90;;;;;;6105796;23;20420;-86
2022/03/17 05:46:00;;;;;;;45.13;31.50;;;9.80;99.90;;;;;;6105270;23;20441;-86
2022/03/17 05:48:26;;;;;;;42.07;30.40;;;9.70;99.90;;;;;;6106579;23;20477;-86
2022/03/17 05:50:55;;;;;;;43.07;30.47;;;9.70;99.90;;;;;;6107178;23;20424;-86
2022/03/17 05:53:22;;;;;;;41.53;29.17;;;9.80;99.90;;;;;;6107471;23;20721;-86
2022/03/17 05:55:49;;;;;;;39.40;29.37;;;9.80;99.90;;;;;;6106831;23;20448;-86
2022/03/17 05:58:16;;;;;;;35.53;28.60;;;10.00;99.90;;;;;;6106692;23;20441;-86
2022/03/17 06:00:43;;;;;;;44.70;31.33;;;9.90;99.90;;;;;;6116787;23;20397;-86
2022/03/17 06:03:10;;;;;;;39.77;29.73;;;9.90;99.90;;;;;;6118698;23;20405;-86
2022/03/17 06:05:37;;;;;;;39.67;30.70;;;10.00;99.90;;;;;;6109599;23;20397;-86
2022/03/17 06:08:06;;;;;;;38.97;31.43;;;10.00;99.90;;;;;;6108886;23;20450;-86
2022/03/17 06:10:34;;;;;;;44.40;31.90;;;9.90;99.90;;;;;;6109212;23;20419;-86
2022/03/17 06:13:03;;;;;;;41.67;30.60;;;9.90;99.90;;;;;;6103952;23;20440;-86
2022/03/17 06:15:31;;;;;;;40.60;30.10;;;9.90;99.90;;;;;;6102667;23;20416;-86
2022/03/17 06:18:00;;;;;;;41.70;31.67;;;9.80;99.90;;;;;;6104228;23;20453;-86
2022/03/17 06:20:31;;;;;;;40.93;30.90;;;9.80;99.90;;;;;;6104149;23;20979;-86
2022/03/17 06:23:00;;;;;;;40.37;30.13;;;9.80;99.90;;;;;;6104510;23;20397;-86
2022/03/17 06:25:33;;;;;;;38.77;29.67;;;10.10;99.90;;;;;;6103773;23;20404;-86
2022/03/17 06:28:00;;;;;;;44.47;30.17;;;10.20;99.90;;;;;;6104748;23;20439;-87
2022/03/17 06:30:35;;;;;;;47.43;29.07;;;10.20;99.90;;;;;;6104219;23;20524;-86
2022/03/17 06:33:02;;;;;;;46.50;31.30;;;10.40;99.90;;;;;;6104208;23;20439;-87
2022/03/17 06:35:29;;;;;;;41.43;30.87;;;10.30;99.90;;;;;;6104990;23;20417;-86
2022/03/17 06:37:58;;;;;;;40.40;29.07;;;10.30;99.90;;;;;;6106018;23;20886;-86
2022/03/17 06:40:28;;;;;;;37.90;29.23;;;10.30;99.90;;;;;;6107074;23;20844;-87
2022/03/17 06:42:56;;;;;;;38.20;29.07;;;10.40;99.90;;;;;;6104506;23;20488;-87
2022/03/17 06:45:24;;;;;;;45.57;31.00;;;10.40;99.90;;;;;;6106270;23;20409;-87
2022/03/17 06:47:51;;;;;;;39.53;30.40;;;10.40;99.90;;;;;;6109540;23;20418;-87
2022/03/17 06:50:20;;;;;;;38.10;30.27;;;10.50;99.90;;;;;;6117710;23;20423;-86
2022/03/17 06:52:47;;;;;;;41.87;31.10;;;10.70;99.90;;;;;;6107839;23;20460;-86
2022/03/17 06:55:15;;;;;;;38.13;29.73;;;10.70;99.90;;;;;;6107019;23;20398;-87
2022/03/17 06:57:44;;;;;;;38.47;29.57;;;10.80;99.90;;;;;;6106551;23;20461;-86
2022/03/17 07:00:13;;;;;;;42.77;30.23;;;10.70;99.90;;;;;;6108399;23;20409;-86
2022/03/17 07:02:43;;;;;;;39.90;29.53;;;10.70;99.90;;;;;;6109404;23;20425;-86
2022/03/17 07:05:14;;;;;;;40.53;30.20;;;10.70;99.90;;;;;;6106653;23;20397;-86
2022/03/17 07:07:44;;;;;;;41.20;29.77;;;10.60;99.90;;;;;;6105611;23;20469;-87
2022/03/17 07:10:13;;;;;;;44.70;31.97;;;10.50;99.90;;;;;;6111776;23;20467;-86
2022/03/17 07:12:41;;;;;;;40.30;30.70;;;10.50;99.90;;;;;;6117325;23;20409;-87
2022/03/17 07:15:12;;;;;;;42.63;29.20;;;10.60;99.90;;;;;;6110362;23;20431;-87
2022/03/17 07:17:44;;;;;;;41.23;30.43;;;10.70;99.90;;;;;;6107196;23;20442;-86
2022/03/17 07:20:19;;;;;;;37.87;30.87;;;10.70;99.90;;;;;;6107505;23;20417;-87
2022/03/17 07:22:51;;;;;;;41.17;31.20;;;10.60;99.90;;;;;;6106277;23;20372;-86
2022/03/17 07:25:23;;;;;;;42.93;32.50;;;10.70;99.90;;;;;;6105039;23;20518;-87
2022/03/17 07:27:51;;;;;;;45.40;34.20;;;10.60;99.90;;;;;;6103366;23;20460;-86
2022/03/17 07:30:26;;;;;;;48.73;33.40;;;10.50;99.90;;;;;;6105201;23;20460;-86
2022/03/17 07:32:55;;;;;;;48.83;31.20;;;10.50;99.90;;;;;;6106275;23;20866;-86
2022/03/17 07:35:25;;;;;;;42.23;33.30;;;10.50;99.90;;;;;;6107446;23;20425;-86
2022/03/17 07:37:57;;;;;;;44.13;33.90;;;10.50;99.90;;;;;;6111690;23;20467;-86
2022/03/17 07:40:24;;;;;;;42.77;31.93;;;10.50;99.90;;;;;;6114758;23;20405;-86
2022/03/17 07:43:07;;;;;;;44.27;33.40;;;10.50;99.90;;;;;;6108040;23;20421;-86
2022/03/17 07:45:40;;;;;;;44.30;33.90;;;10.50;99.90;;;;;;6113819;23;20408;-86
2022/03/17 07:48:09;;;;;;;45.30;32.97;;;10.60;99.90;;;;;;6123740;23;20429;-86
2022/03/17 07:50:39;;;;;;;42.73;32.20;;;10.60;99.90;;;;;;6122506;23;20407;-86
2022/03/17 07:53:16;;;;;;;53.63;34.30;;;10.60;99.90;;;;;;6113684;23;20433;-86
2022/03/17 07:55:47;;;;;;;40.33;32.10;;;10.50;99.90;;;;;;6118535;23;20375;-86
2022/03/17 07:58:36;;;;;;;43.37;33.33;;;10.60;99.90;;;;;;6114455;23;20460;-86
2022/03/17 08:01:07;;;;;;;42.97;32.20;;;10.70;99.90;;;;;;6108351;23;20397;-85
2022/03/17 08:03:41;;;;;;;39.73;30.80;;;10.60;99.90;;;;;;6105443;23;20375;-86
2022/03/17 08:06:10;;;;;;;44.27;32.87;;;10.80;99.90;;;;;;6104863;23;20459;-86
2022/03/17 08:08:46;;;;;;;48.07;32.70;;;10.60;99.90;;;;;;6107125;23;20480;-85
2022/03/17 08:11:18;;;;;;;42.87;31.17;;;10.90;99.90;;;;;;6104068;23;20495;-86
2022/03/17 08:13:45;;;;;;;46.20;34.57;;;11.00;99.90;;;;;;6104578;23;20378;-87
2022/03/17 08:16:17;;;;;;;39.97;33.07;;;11.00;99.90;;;;;;6104145;23;20996;-87
2022/03/17 08:18:44;;;;;;;39.70;30.97;;;11.20;99.90;;;;;;6104845;23;20421;-87
2022/03/17 08:21:12;;;;;;;44.40;32.17;;;11.40;99.90;;;;;;6104201;23;20425;-87
2022/03/17 08:23:40;;;;;;;41.07;31.80;;;11.50;99.90;;;;;;6105103;23;20413;-86
2022/03/17 08:26:09;;;;;;;42.80;33.50;;;11.60;99.90;;;;;;6103920;23;20399;-87
2022/03/17 08:28:36;;;;;;;46.70;33.40;;;11.60;99.90;;;;;;6106179;23;20425;-86
2022/03/17 08:31:08;;;;;;;45.07;32.53;;;11.50;99.90;;;;;;6107741;23;20384;-86
2022/03/17 08:33:37;;;;;;;41.90;31.03;;;11.60;99.90;;;;;;6108417;23;20390;-86
2022/03/17 08:36:06;;;;;;;47.70;30.80;;;11.60;99.90;;;;;;6114524;23;20384;-85
2022/03/17 08:38:39;;;;;;;41.73;31.43;;;11.70;99.90;;;;;;6117041;23;20467;-87
2022/03/17 08:41:06;;;;;;;43.73;32.43;;;11.60;99.90;;;;;;6116897;23;20413;-86
2022/03/17 08:43:38;;;;;;;42.03;31.30;;;11.50;99.90;;;;;;6112613;23;20435;-86
2022/03/17 08:51:39;;;;;;;46.50;35.43;;;11.20;99.90;;;;;;6111973;23;20376;-86
2022/03/17 08:54:17;;;;;;;44.77;33.37;;;11.30;99.90;;;;;;6106437;23;20904;-86
2022/03/17 08:56:44;;;;;;;43.13;33.50;;;11.30;99.90;;;;;;6107922;23;20435;-87
2022/03/17 08:59:11;;;;;;;43.20;34.27;;;11.40;99.90;;;;;;6109007;23;20791;-87
2022/03/17 09:01:47;;;;;;;41.43;32.77;;;11.30;99.90;;;;;;6116206;23;20750;-86
2022/03/17 09:04:28;;;;;;;41.70;31.63;;;11.40;99.90;;;;;;6112769;23;20495;-86
2022/03/17 09:06:59;;;;;;;44.87;32.80;;;11.60;99.90;;;;;;6106920;23;20403;-86
2022/03/17 09:09:32;;;;;;;41.87;31.97;;;11.80;99.90;;;;;;6107122;23;20449;-86
2022/03/17 09:12:18;;;;;;;41.63;30.77;;;12.00;99.90;;;;;;6106670;23;20499;-85
2022/03/17 09:14:58;;;;;;;45.10;33.43;;;12.20;99.90;;;;;;6107766;23;20452;-85
2022/03/17 09:17:33;;;;;;;49.07;33.00;;;12.10;99.90;;;;;;6106900;23;20459;-85
2022/03/17 09:20:44;;;;;;;44.47;33.40;;;12.10;99.90;;;;;;6106858;23;20383;-85
2022/03/17 09:26:36;;;;;;;42.43;30.60;;;12.10;99.90;;;;;;6099361;23;20408;-84
2022/03/17 09:32:20;;;;;;;40.40;32.50;;;12.10;99.90;;;;;;6088476;23;20473;-86
2022/03/17 09:34:59;;;;;;;42.70;31.63;;;12.10;99.90;;;;;;6057078;23;20432;-86
2022/03/17 09:37:38;;;;;;;41.90;30.50;;;12.20;99.90;;;;;;6107932;23;20759;-86
2022/03/17 09:40:12;;;;;;;43.00;31.43;;;12.30;99.90;;;;;;6111150;23;20411;-86
2022/03/17 09:42:44;;;;;;;44.30;31.67;;;12.40;99.90;;;;;;6111159;23;20419;-87
2022/03/17 09:45:25;;;;;;;42.17;31.87;;;12.30;99.90;;;;;;6106725;23;20416;-87
2022/03/17 09:48:04;;;;;;;39.00;30.03;;;12.20;99.90;;;;;;6110526;23;20409;-86
2022/03/17 09:50:49;;;;;;;38.13;28.80;;;12.30;99.90;;;;;;6122189;23;20501;-86
2022/03/17 09:53:35;;;;;;;42.60;29.83;;;12.50;99.90;;;;;;6109006;23;20405;-87
2022/03/17 09:56:17;;;;;;;38.67;29.77;;;12.60;99.90;;;;;;6107344;23;20450;-86
2022/03/17 09:59:13;;;;;;;34.90;27.10;;;12.80;99.90;;;;;;6105938;23;20458;-86
2022/03/17 10:01:58;;;;;;;41.47;30.93;;;12.90;99.90;;;;;;6112077;23;20414;-86
2022/03/17 10:04:45;;;;;;;38.17;28.20;;;12.60;99.90;;;;;;6117695;23;20391;-86
2022/03/17 10:07:22;;;;;;;39.37;28.23;;;12.80;99.90;;;;;;6112475;23;20475;-87
2022/03/17 10:09:57;;;;;;;35.70;28.30;;;12.90;99.90;;;;;;6108561;23;20440;-86
2022/03/17 10:12:41;;;;;;;37.30;29.57;;;13.00;99.90;;;;;;6107050;23;20381;-87
2022/03/17 10:15:24;;;;;;;38.83;29.10;;;13.00;99.90;;;;;;6107684;23;20368;-85
2022/03/17 10:18:03;;;;;;;35.50;26.50;;;12.90;99.90;;;;;;6108044;23;20444;-86
2022/03/17 10:20:46;;;;;;;37.77;30.23;;;12.90;99.90;;;;;;6109397;23;20796;-86
2022/03/17 10:23:26;;;;;;;39.90;29.63;;;12.80;99.90;;;;;;6110025;23;20942;-87
2022/03/17 10:25:59;;;;;;;39.30;28.67;;;12.70;99.90;;;;;;6109281;23;20419;-87
2022/03/17 10:28:30;;;;;;;41.20;30.20;;;12.70;99.90;;;;;;6112646;23;20417;-87
2022/03/17 10:34:08;;;;;;;39.30;29.27;;;12.70;99.90;;;;;;6110594;23;20427;-87
2022/03/17 10:36:47;;;;;;;41.67;27.90;;;12.70;99.90;;;;;;6122674;23;20388;-86
2022/03/17 10:39:23;;;;;;;34.00;25.80;;;13.00;99.90;;;;;;6123317;23;20440;-86
2022/03/17 10:42:09;;;;;;;35.30;26.70;;;13.20;99.90;;;;;;6119010;23;20394;-86
2022/03/17 10:44:42;;;;;;;34.97;26.53;;;13.10;99.90;;;;;;6122776;23;20401;-87
2022/03/17 10:47:43;;;;;;;36.73;25.30;;;13.10;99.90;;;;;;6121865;23;20422;-86
2022/03/17 10:53:12;;;;;;;37.23;25.40;;;13.20;99.90;;;;;;6108841;23;20412;-86
2022/03/17 10:55:49;;;;;;;41.30;29.80;;;13.20;99.90;;;;;;6111113;23;20391;-87
2022/03/17 10:58:24;;;;;;;39.97;27.60;;;13.00;99.90;;;;;;6104346;23;20581;-85
2022/03/17 11:00:53;;;;;;;39.90;30.37;;;13.00;99.90;;;;;;6152083;23;20347;-87
2022/03/17 11:03:22;;;;;;;42.90;29.23;;;12.90;99.90;;;;;;6138240;23;20395;-86
2022/03/17 11:05:53;;;;;;;43.93;30.50;;;12.80;99.90;;;;;;6136648;23;20420;-86
2022/03/17 11:08:23;;;;;;;46.00;30.30;;;12.80;99.90;;;;;;6135444;23;20409;-86
2022/03/17 11:10:53;;;;;;;42.57;31.20;;;12.80;99.90;;;;;;6136953;23;20482;-85
2022/03/17 11:13:22;;;;;;;42.30;30.47;;;13.10;99.90;;;;;;6139249;23;20395;-87
2022/03/17 11:15:57;;;;;;;37.10;23.00;;;13.10;99.90;;;;;;6138560;23;20488;-86
2022/03/17 11:18:29;;;;;;;35.40;25.07;;;13.10;99.90;;;;;;6143397;23;20431;-86
2022/03/17 11:21:14;;;;;;;35.27;25.80;;;13.00;99.90;;;;;;6150734;23;20379;-87
2022/03/17 11:23:56;;;;;;;40.40;26.70;;;13.00;99.90;;;;;;6142347;23;20378;-87
2022/03/17 11:26:29;;;;;;;43.07;28.10;;;13.00;99.90;;;;;;6136762;23;20400;-87
2022/03/17 11:29:05;;;;;;;39.10;27.50;;;12.90;99.90;;;;;;6136225;23;20503;-87
2022/03/17 11:32:01;;;;;;;25.77;16.80;;;12.90;99.90;;;;;;6138522;23;20443;-87
2022/03/17 11:34:41;;;;;;;33.53;23.17;;;12.80;99.90;;;;;;6137403;23;20392;-87
2022/03/17 11:37:25;;;;;;;36.13;24.40;;;12.50;99.90;;;;;;6138331;23;20431;-85
2022/03/17 11:39:56;;;;;;;40.60;24.20;;;12.50;99.90;;;;;;6147744;23;20423;-86
2022/03/17 11:42:53;;;;;;;42.03;29.93;;;12.50;99.90;;;;;;6144425;23;20399;-86
2022/03/17 11:45:42;;;;;;;39.80;28.37;;;12.40;99.90;;;;;;6137084;23;20412;-87
2022/03/17 11:48:14;;;;;;;41.70;27.30;;;12.40;99.90;;;;;;6136138;23;20526;-87
2022/03/17 11:50:49;;;;;;;34.73;26.63;;;12.50;99.90;;;;;;6135153;23;20503;-85
2022/03/17 11:53:45;;;;;;;38.93;27.67;;;12.60;99.90;;;;;;6145457;23;20380;-86
2022/03/17 11:56:28;;;;;;;42.53;28.73;;;12.70;99.90;;;;;;6142908;23;20428;-86
2022/03/17 11:59:03;;;;;;;40.60;29.10;;;12.70;99.90;;;;;;6136977;23;20410;-86
2022/03/17 12:01:36;;;;;;;43.27;29.87;;;12.80;99.90;;;;;;6134023;23;20890;-86
2022/03/17 12:04:22;;;;;;;45.73;30.63;;;12.80;99.90;;;;;;6133298;23;20488;-89
2022/03/17 12:06:55;;;;;;;41.27;29.97;;;12.60;99.90;;;;;;6133718;23;20926;-86
2022/03/17 12:09:32;;;;;;;43.30;31.97;;;12.50;99.90;;;;;;6134866;23;20450;-87
2022/03/17 12:12:03;;;;;;;48.10;33.47;;;12.40;99.90;;;;;;6135356;23;20474;-86
2022/03/17 12:14:54;;;;;;;43.70;31.67;;;12.40;99.90;;;;;;6135963;23;20474;-85
2022/03/17 12:17:24;;;;;;;42.70;31.43;;;12.40;99.90;;;;;;6135585;23;20404;-87
2022/03/17 12:20:09;;;;;;;45.33;29.30;;;12.40;99.90;;;;;;6137414;23;20778;-87
2022/03/17 12:22:39;;;;;;;53.47;31.83;;;12.50;99.90;;;;;;6138500;23;20387;-87
2022/03/17 12:25:17;;;;;;;43.00;31.33;;;12.20;99.90;;;;;;6137069;23;20500;-87
2022/03/17 12:27:48;;;;;;;43.60;29.10;;;12.40;99.90;;;;;;6135261;23;20482;-87
2022/03/17 12:30:17;;;;;;;43.63;32.13;;;12.50;99.90;;;;;;6135911;23;20506;-88
2022/03/17 12:32:52;;;;;;;41.87;30.10;;;12.40;99.90;;;;;;6152097;23;20367;-86
2022/03/17 12:35:20;;;;;;;38.83;30.80;;;12.50;99.90;;;;;;6139875;23;20863;-85
2022/03/17 12:37:48;;;;;;;43.10;31.10;;;12.60;99.90;;;;;;6133864;23;20418;-86
2022/03/17 12:40:19;;;;;;;41.80;29.13;;;12.70;99.90;;;;;;6134475;23;20379;-86
2022/03/17 12:42:48;;;;;;;42.67;30.13;;;12.70;99.90;;;;;;6142773;23;20443;-86
2022/03/17 12:45:20;;;;;;;41.97;30.93;;;12.70;99.90;;;;;;6134641;23;20397;-87
2022/03/17 12:47:56;;;;;;;49.40;32.10;;;12.80;99.90;;;;;;6145357;23;20412;-88
2022/03/17 12:50:25;;;;;;;42.97;30.97;;;12.70;99.90;;;;;;6139293;23;20413;-88
2022/03/17 12:52:52;;;;;;;44.07;30.13;;;12.70;99.90;;;;;;6134115;23;20483;-86
2022/03/17 12:55:26;;;;;;;43.90;30.50;;;12.60;99.90;;;;;;6133852;23;20396;-85
2022/03/17 12:57:55;;;;;;;40.70;28.23;;;12.60;99.90;;;;;;6133147;23;20400;-87
2022/03/17 13:00:24;;;;;;;42.70;30.27;;;12.50;99.90;;;;;;6132298;23;20398;-86
2022/03/17 13:03:04;;;;;;;40.23;30.20;;;12.50;99.90;;;;;;6135469;23;20397;-86
2022/03/17 13:08:18;;;;;;;44.40;31.93;;;12.60;99.90;;;;;;6136617;23;20425;-88
2022/03/17 13:21:51;;;;;;;;;;;;;;;;;;;;;
2022/03/17 13:28:40;;;;;;;;;;;;;;;;;;;;;
2022/03/17 14:05:49;;;;;;;45.90;33.60;;;12.40;99.90;;;;;;5987075;23;20399;-86
2022/03/17 16:59:17;;;;;;;42.93;28.40;;;11.90;99.90;;;;;;6044115;23;20508;-87
2022/03/17 17:01:57;;;;;;;39.07;25.10;;;11.90;99.90;;;;;;6166508;23;20406;-85
2022/03/17 17:04:25;;;;;;;43.67;32.50;;;11.80;99.90;;;;;;6166694;23;20404;-86
2022/03/17 17:07:06;;;;;;;38.17;28.60;;;11.70;99.90;;;;;;6166473;23;20413;-88
2022/03/17 17:15:52;;;;;;;40.63;28.00;;;12.00;99.90;;;;;;6166001;23;20473;-89
2022/03/17 17:21:53;;;;;;;39.20;29.40;;;11.90;99.90;;;;;;6157311;23;20399;-88
2022/03/17 17:33:48;;;;;;;40.40;26.00;;;11.70;99.90;;;;;;6168011;23;20370;-89
2022/03/17 17:36:18;;;;;;;38.70;25.10;;;11.70;99.90;;;;;;6169840;23;20385;-87
2022/03/17 17:39:16;;;;;;;36.83;24.77;;;11.60;99.90;;;;;;6177862;23;20407;-86
2022/03/17 17:42:06;;;;;;;38.87;29.40;;;11.50;99.90;;;;;;6166860;23;20800;-87